x

North Hecate Strait (46183) Wave Buoy

9:00am - Sun 5th Jul 2015 All times are PDT. -7 hours from GMT.

  • Sig Wave height 3.9ft
  • Peak Period 5s
  • Wind
    20mph, 22mph gusts
  • Sea Temp 56°f
  • Air Temp 58°f
  • Sea Pressure 1018.7mb
  • North Hecate Strait
  • North Hecate Strait

More Historic Weather Station data

Upgrade to MSW Pro to gain access to the past 30 days of data for over 8000 Wavebouys and Weather Stations around the globe.

Join Pro

Comparision Forecast

View Surf forecast
   
Sun 07/05 9:00am 4ft 5s 20 22 mph 1018.7mb 56f 58f
8:00am 4ft 4s 18 22 mph 1018.5mb 56f 57f
6:00am 3.5ft 5s 18 22 mph 1018.3mb 57f 57f
5:00am 4ft 4s 20 25 mph 1018.3mb 57f 58f
4:00am 4ft 5s 20 22 mph 1018.4mb 57f 58f
3:00am 4.5ft 5s 18 22 mph 1018.5mb 57f 58f
2:00am 4ft 5s 18 22 mph 1018.8mb 57f 58f
1:00am 4ft 5s 20 22 mph 1019.3mb 57f 58f
12:00am 4.5ft 5s 18 22 mph 1019.6mb 57f 59f
Sat 07/04 11:00pm 4ft 5s 22 25 mph 1019.7mb 57f 60f
10:00pm 4.5ft 5s 22 27 mph 1019.9mb 57f 60f
9:00pm 4ft 5s 22 27 mph 1019.8mb 57f 60f
8:00pm 4ft 5s 20 25 mph 1019.6mb 57f 60f
7:00pm 3.5ft 5s 22 25 mph 1019.7mb 57f 60f
6:00pm 3.5ft 4s 20 25 mph 1019.9mb 57f 59f
5:00pm 3ft 4s 20 25 mph 1020.2mb 57f 60f
4:00pm 2.5ft 4s 20 22 mph 1020.4mb 57f 58f
3:00pm 2.5ft 5s 18 22 mph 1020.9mb 57f 58f
2:00pm 3ft 5s 16 18 mph 1021.6mb 57f 58f
1:00pm 3ft 5s 16 18 mph 1021.9mb 57f 58f
12:00pm 3ft 4s 20 25 mph 1022.2mb 57f 57f
11:00am 3ft 4s 20 22 mph 1022.6mb 57f 58f
10:00am 3ft 4s 20 22 mph 1022.5mb 57f 58f
9:00am 3.5ft 4s 20 25 mph 1022.4mb 57f 58f
6:00am 3.5ft 4s 22 27 mph 1021.3mb 57f 58f
5:00am 3.5ft 4s 20 25 mph 1021.2mb 57f 58f
4:00am 3ft 4s 20 25 mph 1021.1mb 58f 58f
3:00am 3ft 5s 20 25 mph 1021.1mb 58f 58f
2:00am 3.5ft 5s 20 25 mph 1021.2mb 58f 58f
1:00am 3.5ft 5s 20 27 mph 1021.3mb 59f 58f
12:00am 3.5ft 5s 18 22 mph 1021.6mb 59f 58f
Fri 07/03 11:00pm 3ft 4s 20 25 mph 1021.8mb 59f 59f
10:00pm 3ft 4s 18 25 mph 1022.2mb 59f 59f
9:00pm 3ft 4s 20 25 mph 1022.2mb 59f 60f
8:00pm 2.5ft 4s 18 22 mph 1022mb 59f 60f
7:00pm 2.5ft 4s 18 20 mph 1021.9mb 59f 60f
6:00pm 2.5ft 4s 18 20 mph 1022.1mb 59f 59f
5:00pm 2.5ft 4s 18
mph
1022.2mb 58f 59f
4:00pm 2.5ft 4s 18 20 mph 1022.5mb 58f 58f
3:00pm 2.5ft 4s 16 18 mph 1022.9mb 58f 58f
2:00pm 2.5ft 4s 16 20 mph 1023.2mb 58f 57f
1:00pm 2.5ft 4s 18 22 mph 1023.2mb 58f 57f
12:00pm 2.5ft 4s 18 22 mph 1023.4mb 58f 57f
11:00am 2.5ft 4s 18 20 mph 1023.7mb 58f 57f
10:00am 3ft 4s 18 22 mph 1023.7mb 58f 57f
9:00am 3ft 4s 18 22 mph 1024mb 58f 57f
8:00am 3.5ft 4s 20 22 mph 1023.8mb 58f 56f
7:00am 4ft 4s 20 22 mph 1023.4mb 58f 56f
6:00am 4ft 5s 20 25 mph 1023.2mb 58f 56f
5:00am 4ft 5s 22 25 mph 1023mb 58f 56f
4:00am 3.5ft 5s 22 27 mph 1023mb 58f 56f
3:00am 3.5ft 5s 20 25 mph 1023.1mb 58f 56f
2:00am 3.5ft 5s 20 22 mph 1023.3mb 58f 56f
1:00am 4ft 5s 20 25 mph 1023.3mb 58f 56f
12:00am 4ft 5s 20 22 mph 1023.6mb 58f 56f
Thu 07/02 11:00pm 3.5ft 5s 18 22 mph 1023.8mb 58f 57f
10:00pm 4ft 5s 20 22 mph 1023.8mb 58f 57f
7:00pm 2.5ft 4s 20 25 mph 1024.2mb 58f 58f
6:00pm 2.5ft 4s 18 22 mph 1024mb 58f 57f
5:00pm 2.5ft 4s 18 22 mph 1024.2mb 58f 57f
4:00pm 2.5ft 4s 20 22 mph 1024.1mb 58f 57f
3:00pm 2.5ft 4s 18 22 mph 1024.1mb 58f 57f
2:00pm 2.5ft 4s 18 20 mph 1024.1mb 58f 57f
1:00pm 2.5ft 4s 18 22 mph 1023.9mb 58f 57f
12:00pm 2.5ft 4s 18 20 mph 1023.9mb 58f 57f
11:00am 1.6ft 3s 16 18 mph 1023.7mb 58f 57f
10:00am 1ft 2s 16 18 mph 1023.4mb 58f 57f
9:00am 1ft 3s 16 18 mph 1023.2mb 58f 58f
8:00am 1ft 3s 2
mph
1022.8mb 59f 60f
7:00am 1ft 3s 2
mph
1022.3mb 59f 59f
6:00am 1ft 4s 4
mph
1021.9mb 58f 58f
4:00am 1.6ft 4s 7
mph
1021.3mb 58f 58f
3:00am 1.6ft 4s 7 9 mph 1021mb 58f 58f
2:00am 0.7ft 14s 7
mph
1020.9mb 58f 58f
1:00am 0.7ft 14s 7 9 mph 1020.9mb 58f 59f
12:00am 0.7ft 13s 9
mph
1021mb 58f 58f
Wed 07/01 10:00pm 0.7ft 12s 4
mph
1021.5mb 59f 58f
9:00pm 1ft 13s 4 7 mph 1021.4mb 58f 58f
8:00pm 1ft 7s 2
mph
1021.7mb 59f 58f
7:00pm 1ft 14s 2
mph
1022mb 59f 59f
6:00pm 1ft 14s 4
mph
1022.3mb 59f 58f